createdAt,value
2023-05-20T00:00:49.618Z,991.343
2023-05-20T00:02:50.316Z,991.377
2023-05-20T00:04:50.106Z,991.289
2023-05-20T00:06:49.770Z,991.268
2023-05-20T00:08:49.391Z,991.334
2023-05-20T00:10:49.996Z,991.359
2023-05-20T00:12:49.532Z,991.430
2023-05-20T00:14:50.129Z,991.302
2023-05-20T00:16:49.853Z,991.358
2023-05-20T00:18:49.497Z,991.327
2023-05-20T00:20:50.155Z,991.251
2023-05-20T00:22:49.696Z,991.202
2023-05-20T00:24:50.312Z,991.321
2023-05-20T00:26:49.993Z,991.289
2023-05-20T00:28:49.560Z,991.313
2023-05-20T00:30:49.402Z,991.313
2023-05-20T00:32:50.294Z,991.216
2023-05-20T00:34:49.933Z,991.158
2023-05-20T00:36:49.542Z,991.169
2023-05-20T00:38:50.099Z,991.167
2023-05-20T00:40:49.705Z,991.084
2023-05-20T00:42:50.232Z,991.146
2023-05-20T00:44:49.810Z,991.194
2023-05-20T00:46:49.469Z,991.231
2023-05-20T00:48:50.118Z,991.151
2023-05-20T00:50:49.744Z,991.259
2023-05-20T00:52:49.391Z,991.239
2023-05-20T00:54:49.909Z,991.193
2023-05-20T00:56:49.551Z,991.273
2023-05-20T00:58:50.127Z,991.264
2023-05-20T01:00:49.733Z,991.318
2023-05-20T01:02:49.535Z,991.225
2023-05-20T01:04:50.232Z,991.204
2023-05-20T01:06:49.776Z,991.160
2023-05-20T01:08:49.408Z,991.184
2023-05-20T01:10:50.030Z,991.184
2023-05-20T01:12:49.623Z,991.213
2023-05-20T01:14:50.179Z,991.138
2023-05-20T01:16:49.734Z,991.153
2023-05-20T01:18:50.286Z,991.152
2023-05-20T01:20:49.853Z,991.045
2023-05-20T01:22:49.409Z,990.986
2023-05-20T01:24:49.942Z,991.003
2023-05-20T01:26:49.534Z,991.072
2023-05-20T01:28:50.132Z,991.066
2023-05-20T01:30:49.731Z,990.913
2023-05-20T01:32:50.388Z,991.020
2023-05-20T01:34:49.996Z,991.004
2023-05-20T01:36:49.622Z,991.010
2023-05-20T01:38:50.270Z,990.929
2023-05-20T01:40:49.915Z,990.986
2023-05-20T01:42:49.445Z,990.968
2023-05-20T01:44:50.141Z,991.004
2023-05-20T01:46:49.727Z,990.959
2023-05-20T01:48:49.421Z,990.887
2023-05-20T01:50:50.008Z,990.847
2023-05-20T01:52:49.614Z,990.847
2023-05-20T01:54:50.187Z,990.932
2023-05-20T01:56:49.736Z,990.931
2023-05-20T01:58:49.346Z,990.862
2023-05-20T02:00:49.925Z,990.883
2023-05-20T02:02:49.561Z,990.859
2023-05-20T02:04:50.276Z,990.869
2023-05-20T02:06:49.920Z,990.986
2023-05-20T02:08:49.586Z,990.885
2023-05-20T02:10:50.214Z,990.885
2023-05-20T02:12:49.852Z,990.821
2023-05-20T02:14:49.447Z,990.887
2023-05-20T02:16:50.260Z,990.802
2023-05-20T02:18:50.081Z,990.880
2023-05-20T02:20:49.709Z,990.805
2023-05-20T02:22:50.249Z,990.778
2023-05-20T02:24:50.172Z,990.737
2023-05-20T02:26:49.804Z,990.763
2023-05-20T02:28:49.434Z,990.735
2023-05-20T02:30:50.033Z,990.691
2023-05-20T02:32:49.584Z,990.699
2023-05-20T02:34:50.224Z,990.734
2023-05-20T02:36:49.859Z,990.669
2023-05-20T02:38:49.412Z,990.570
2023-05-20T02:40:50.011Z,990.673
2023-05-20T02:42:49.602Z,990.672
2023-05-20T02:44:50.200Z,990.654
2023-05-20T02:46:49.739Z,990.724
2023-05-20T02:48:50.329Z,990.640
2023-05-20T02:50:49.937Z,990.683
2023-05-20T02:52:49.574Z,990.778
2023-05-20T02:54:50.155Z,990.694
2023-05-20T02:56:49.746Z,990.676
2023-05-20T02:58:49.377Z,990.781
2023-05-20T03:00:49.978Z,990.802
2023-05-20T03:02:49.590Z,990.774
2023-05-20T03:04:50.234Z,990.768
2023-05-20T03:06:49.811Z,990.738
2023-05-20T03:08:49.361Z,990.770
2023-05-20T03:10:49.949Z,990.738
2023-05-20T03:12:49.556Z,990.694
2023-05-20T03:14:50.152Z,990.764
2023-05-20T03:16:49.763Z,990.724
2023-05-20T03:18:49.437Z,990.628
2023-05-20T03:20:50.133Z,990.691
2023-05-20T03:22:49.774Z,990.653
2023-05-20T03:24:49.365Z,990.693
2023-05-20T03:26:49.981Z,990.711
2023-05-20T03:28:49.515Z,990.692
2023-05-20T03:30:50.105Z,990.698
2023-05-20T03:32:49.701Z,990.757
2023-05-20T03:34:49.364Z,990.703
2023-05-20T03:36:49.971Z,990.779
2023-05-20T03:38:49.564Z,990.708
2023-05-20T03:40:50.130Z,990.787
2023-05-20T03:42:49.665Z,990.653
2023-05-20T03:44:50.300Z,990.702
2023-05-20T03:46:49.971Z,990.740
2023-05-20T03:48:49.550Z,990.741
2023-05-20T03:50:50.134Z,990.719
2023-05-20T03:52:49.747Z,990.745
2023-05-20T03:54:49.357Z,990.725
2023-05-20T03:56:49.976Z,990.718
2023-05-20T03:58:49.529Z,990.733
2023-05-20T04:00:50.071Z,990.750
2023-05-20T04:02:49.745Z,990.650
2023-05-20T04:04:49.381Z,990.719
2023-05-20T04:06:49.960Z,990.719
2023-05-20T04:08:49.534Z,990.771
2023-05-20T04:10:50.121Z,990.799
2023-05-20T04:12:49.783Z,990.846
2023-05-20T04:14:49.432Z,990.752
2023-05-20T04:16:50.045Z,990.828
2023-05-20T04:18:49.717Z,990.857
2023-05-20T04:20:49.351Z,990.839
2023-05-20T04:22:49.925Z,990.853
2023-05-20T04:24:49.478Z,990.775
2023-05-20T04:26:50.121Z,990.811
2023-05-20T04:28:49.654Z,990.761
2023-05-20T04:30:50.270Z,990.785
2023-05-20T04:32:49.886Z,990.744
2023-05-20T04:34:49.510Z,990.747
2023-05-20T04:36:50.139Z,990.731
2023-05-20T04:38:49.739Z,990.715
2023-05-20T04:40:49.361Z,990.811
2023-05-20T04:42:49.972Z,990.770
2023-05-20T04:44:49.660Z,990.860
2023-05-20T04:46:50.211Z,990.801
2023-05-20T04:48:49.823Z,990.767
2023-05-20T04:50:49.353Z,990.694
2023-05-20T04:52:49.952Z,990.820
2023-05-20T04:54:49.571Z,990.814
2023-05-20T04:56:50.261Z,990.829
2023-05-20T04:58:49.858Z,990.765
2023-05-20T05:00:49.446Z,990.778
2023-05-20T05:02:50.120Z,990.770
2023-05-20T05:04:49.781Z,990.713
2023-05-20T05:06:49.453Z,990.728
2023-05-20T05:08:50.009Z,990.706
2023-05-20T05:10:49.713Z,990.733
2023-05-20T05:12:50.301Z,990.734
2023-05-20T05:14:49.892Z,990.720
2023-05-20T05:16:49.484Z,990.721
2023-05-20T05:18:50.117Z,990.652
2023-05-20T05:20:49.731Z,990.735
2023-05-20T05:22:49.336Z,990.624
2023-05-20T05:24:49.942Z,990.653
2023-05-20T05:26:49.547Z,990.579
2023-05-20T05:28:50.126Z,990.663
2023-05-20T05:30:49.706Z,990.591
2023-05-20T05:32:50.344Z,990.671
2023-05-20T05:34:50.110Z,990.502
2023-05-20T05:36:49.686Z,990.502
2023-05-20T05:38:50.224Z,990.532
2023-05-20T05:40:49.859Z,990.521
2023-05-20T05:42:49.415Z,990.512
2023-05-20T05:44:50.024Z,990.611
2023-05-20T05:46:49.645Z,990.498
2023-05-20T05:48:50.284Z,990.430
2023-05-20T05:50:49.880Z,990.458
2023-05-20T05:52:49.478Z,990.516
2023-05-20T05:54:50.052Z,990.567
2023-05-20T05:56:49.678Z,990.561
2023-05-20T05:58:50.229Z,990.446
2023-05-20T06:00:49.874Z,990.491
2023-05-20T06:02:49.732Z,990.458
2023-05-20T06:04:49.482Z,990.441
2023-05-20T06:06:50.124Z,990.541
2023-05-20T06:08:49.697Z,990.498
2023-05-20T06:10:50.272Z,990.492
2023-05-20T06:12:49.953Z,990.407
2023-05-20T06:14:49.608Z,990.438
2023-05-20T06:16:50.256Z,990.411
2023-05-20T06:18:49.972Z,990.402
2023-05-20T06:20:49.560Z,990.365
2023-05-20T06:22:50.170Z,990.313
2023-05-20T06:24:49.760Z,990.280
2023-05-20T06:26:49.369Z,990.223
2023-05-20T06:28:49.944Z,990.260
2023-05-20T06:30:49.667Z,990.317
2023-05-20T06:32:50.368Z,990.322
2023-05-20T06:34:50.016Z,990.343
2023-05-20T06:36:49.584Z,990.241
2023-05-20T06:38:50.175Z,990.226
2023-05-20T06:40:49.721Z,990.259
2023-05-20T06:42:50.305Z,990.207
2023-05-20T06:44:49.947Z,990.282
2023-05-20T06:46:49.686Z,990.312
2023-05-20T06:48:49.353Z,990.278
2023-05-20T06:50:49.976Z,990.229
2023-05-20T06:52:49.561Z,990.288
2023-05-20T06:54:50.101Z,990.236
2023-05-20T06:56:49.703Z,990.275
2023-05-20T06:58:50.294Z,990.331
2023-05-20T07:00:49.917Z,990.328
2023-05-20T07:02:49.596Z,990.356
2023-05-20T07:04:50.191Z,990.341
2023-05-20T07:06:49.726Z,990.341
2023-05-20T07:08:50.276Z,990.281
2023-05-20T07:10:49.869Z,990.247
2023-05-20T07:12:49.461Z,990.287
2023-05-20T07:14:50.077Z,990.276
2023-05-20T07:16:49.706Z,990.245
2023-05-20T07:18:50.316Z,990.291
2023-05-20T07:20:49.920Z,990.253
2023-05-20T07:22:49.443Z,990.397
2023-05-20T07:24:50.049Z,990.213
2023-05-20T07:26:49.611Z,990.143
2023-05-20T07:28:50.208Z,990.233
2023-05-20T07:30:49.719Z,990.230
2023-05-20T07:32:49.369Z,990.206
2023-05-20T07:34:50.070Z,990.158
2023-05-20T07:36:49.803Z,990.148
2023-05-20T07:38:57.020Z,990.246
2023-05-20T07:40:49.967Z,990.075
2023-05-20T07:42:49.536Z,990.107
2023-05-20T07:44:50.192Z,990.109
2023-05-20T07:46:49.825Z,990.083
2023-05-20T07:48:49.462Z,990.087
2023-05-20T07:50:50.055Z,990.157
2023-05-20T07:52:56.511Z,990.120
2023-05-20T07:54:49.644Z,990.070
2023-05-20T07:56:50.197Z,990.157
2023-05-20T07:58:49.864Z,990.096
2023-05-20T08:00:49.452Z,990.083
2023-05-20T08:02:50.280Z,990.146
2023-05-20T08:04:50.094Z,990.055
2023-05-20T08:06:49.648Z,990.121
2023-05-20T08:08:50.243Z,990.172
2023-05-20T08:10:49.776Z,990.061
2023-05-20T08:12:49.409Z,990.140
2023-05-20T08:14:49.957Z,990.044
2023-05-20T08:16:51.021Z,989.994
2023-05-20T08:18:50.060Z,989.900
2023-05-20T08:20:49.737Z,989.880
2023-05-20T08:22:49.451Z,989.910
2023-05-20T08:24:50.049Z,989.827
2023-05-20T08:26:49.626Z,989.821
2023-05-20T08:28:50.216Z,989.888
2023-05-20T08:30:49.791Z,989.768
2023-05-20T08:32:49.436Z,989.781
2023-05-20T08:34:50.127Z,989.774
2023-05-20T08:36:49.806Z,989.725
2023-05-20T08:38:49.404Z,989.736
2023-05-20T08:40:49.988Z,989.783
2023-05-20T08:42:49.606Z,989.825
2023-05-20T08:44:50.229Z,989.917
2023-05-20T08:46:49.956Z,989.866
2023-05-20T08:48:49.628Z,989.881
2023-05-20T08:50:50.206Z,989.819
2023-05-20T08:52:49.913Z,989.827
2023-05-20T08:54:49.555Z,989.864
2023-05-20T08:56:50.123Z,989.776
2023-05-20T08:58:49.760Z,989.790
2023-05-20T09:00:49.392Z,989.774
2023-05-20T09:02:50.016Z,989.771
2023-05-20T09:04:49.828Z,989.840
2023-05-20T09:06:49.552Z,989.859
2023-05-20T09:08:50.176Z,989.712
2023-05-20T09:10:49.762Z,989.803
2023-05-20T09:12:49.371Z,989.831
2023-05-20T09:14:50.026Z,989.803
2023-05-20T09:16:49.621Z,989.786
2023-05-20T09:18:50.314Z,989.840
2023-05-20T09:20:49.842Z,989.823
2023-05-20T09:22:49.397Z,989.757
2023-05-20T09:24:49.955Z,989.788
2023-05-20T09:26:49.597Z,989.775
2023-05-20T09:28:50.164Z,989.793
2023-05-20T09:30:49.752Z,989.834
2023-05-20T09:32:49.485Z,989.898
2023-05-20T09:34:50.153Z,989.847
2023-05-20T09:36:49.788Z,989.871
2023-05-20T09:38:49.526Z,989.961
2023-05-20T09:40:50.166Z,989.968
2023-05-20T09:42:49.757Z,989.934
2023-05-20T09:44:50.311Z,989.853
2023-05-20T09:46:49.916Z,989.870
2023-05-20T09:48:49.591Z,989.855
2023-05-20T09:50:50.131Z,989.865
2023-05-20T09:52:49.684Z,989.837
2023-05-20T09:54:50.343Z,989.820
2023-05-20T09:56:50.031Z,989.727
2023-05-20T09:58:49.687Z,989.688
2023-05-20T10:00:49.362Z,989.701
2023-05-20T10:02:50.031Z,989.620
2023-05-20T10:04:49.739Z,989.692
2023-05-20T10:06:49.360Z,989.643
2023-05-20T10:08:49.959Z,989.725
2023-05-20T10:10:49.581Z,989.749
2023-05-20T10:12:50.183Z,989.773
2023-05-20T10:14:49.788Z,989.733
2023-05-20T10:16:49.428Z,989.692
2023-05-20T10:18:50.057Z,989.677
2023-05-20T10:20:49.685Z,989.638
2023-05-20T10:22:50.274Z,989.570
2023-05-20T10:24:49.873Z,989.601
2023-05-20T10:26:49.505Z,989.645
2023-05-20T10:28:50.148Z,989.580
2023-05-20T10:30:49.696Z,989.690
2023-05-20T10:32:49.493Z,989.639
2023-05-20T10:34:50.177Z,989.510
2023-05-20T10:36:49.863Z,989.482
2023-05-20T10:38:49.407Z,989.517
2023-05-20T10:40:50.089Z,989.440
2023-05-20T10:42:49.711Z,989.489
2023-05-20T10:44:49.377Z,989.544
2023-05-20T10:48:49.956Z,989.418
2023-05-20T10:50:49.593Z,989.432
2023-05-20T10:52:50.166Z,989.443
2023-05-20T10:54:51.766Z,989.443
2023-05-20T10:56:49.585Z,989.558
2023-05-20T10:58:50.126Z,989.561
2023-05-20T11:00:50.886Z,989.524
2023-05-20T11:02:49.633Z,989.542
2023-05-20T11:04:50.304Z,989.542
2023-05-20T11:06:49.958Z,989.638
2023-05-20T11:08:49.473Z,989.593
2023-05-20T11:10:50.073Z,989.545
2023-05-20T11:12:49.659Z,989.553
2023-05-20T11:14:50.206Z,989.517
2023-05-20T11:16:49.939Z,989.603
2023-05-20T11:18:49.626Z,989.537
2023-05-20T11:20:50.202Z,989.537
2023-05-20T11:22:49.748Z,989.343
2023-05-20T11:24:50.321Z,989.259
2023-05-20T11:26:49.892Z,989.229
2023-05-20T11:28:49.519Z,989.398
2023-05-20T11:30:50.218Z,989.299
2023-05-20T11:32:49.871Z,989.326
2023-05-20T11:34:49.604Z,989.309
2023-05-20T11:36:50.230Z,989.255
2023-05-20T11:38:49.825Z,989.213
2023-05-20T11:40:51.476Z,989.289
2023-05-20T11:42:49.372Z,989.305
2023-05-20T11:44:49.929Z,989.207
2023-05-20T11:46:49.542Z,989.302
2023-05-20T11:48:50.150Z,989.235
2023-05-20T11:50:49.788Z,989.407
2023-05-20T11:52:49.356Z,989.248
2023-05-20T11:54:49.924Z,989.307
2023-05-20T11:56:49.514Z,989.284
2023-05-20T11:58:50.033Z,989.210
2023-05-20T12:00:53.136Z,989.198
2023-05-20T12:02:49.615Z,989.192
2023-05-20T12:04:50.432Z,989.193
2023-05-20T12:06:50.049Z,989.219
2023-05-20T12:08:49.638Z,989.254
2023-05-20T12:10:50.231Z,989.308
2023-05-20T12:12:49.799Z,989.128
2023-05-20T12:14:49.419Z,989.280
2023-05-20T12:16:50.058Z,989.262
2023-05-20T12:18:49.699Z,989.191
2023-05-20T12:20:49.373Z,989.248
2023-05-20T12:22:50.007Z,989.224
2023-05-20T12:24:49.577Z,989.205
2023-05-20T12:26:50.200Z,989.111
2023-05-20T12:28:49.716Z,989.076
2023-05-20T12:30:50.302Z,989.099
2023-05-20T12:32:49.920Z,989.141
2023-05-20T12:34:49.702Z,989.136
2023-05-20T12:36:50.258Z,989.107
2023-05-20T12:38:49.856Z,989.099
2023-05-20T12:40:49.440Z,989.044
2023-05-20T12:42:50.077Z,989.101
2023-05-20T12:44:49.644Z,989.074
2023-05-20T12:46:50.271Z,989.105
2023-05-20T12:48:49.996Z,989.105
2023-05-20T12:50:49.679Z,989.174
2023-05-20T12:52:50.279Z,989.106
2023-05-20T12:54:49.836Z,989.237
2023-05-20T12:56:49.485Z,989.157
2023-05-20T12:58:50.110Z,989.138
2023-05-20T13:00:49.798Z,989.199
2023-05-20T13:02:49.424Z,989.096
2023-05-20T13:04:50.192Z,989.115
2023-05-20T13:06:49.872Z,989.098
2023-05-20T13:08:49.484Z,989.094
2023-05-20T13:10:50.199Z,989.040
2023-05-20T13:12:49.781Z,989.067
2023-05-20T13:14:49.385Z,989.061
2023-05-20T13:16:50.016Z,989.085
2023-05-20T13:18:49.724Z,989.170
2023-05-20T13:20:49.383Z,989.094
2023-05-20T13:22:49.979Z,989.094
2023-05-20T13:24:49.480Z,989.137
2023-05-20T13:26:50.069Z,989.040
2023-05-20T13:28:49.641Z,989.044
2023-05-20T13:30:50.228Z,988.922
2023-05-20T13:32:49.874Z,988.960
2023-05-20T13:34:49.542Z,988.989
2023-05-20T13:36:50.236Z,989.010
2023-05-20T13:38:49.794Z,988.958
2023-05-20T13:40:49.433Z,988.958
2023-05-20T13:42:50.153Z,988.979
2023-05-20T13:44:49.859Z,988.930
2023-05-20T13:46:49.598Z,988.830
2023-05-20T13:48:50.182Z,988.904
2023-05-20T13:50:49.811Z,988.811
2023-05-20T13:52:50.364Z,988.911
2023-05-20T13:54:49.940Z,988.827
2023-05-20T13:56:49.556Z,988.752
2023-05-20T13:58:50.197Z,988.724
2023-05-20T14:00:49.712Z,988.757
2023-05-20T14:02:50.512Z,988.772
2023-05-20T14:04:50.286Z,988.668
2023-05-20T14:06:49.872Z,988.635
2023-05-20T14:08:49.428Z,988.680
2023-05-20T14:10:49.965Z,988.588
2023-05-20T14:12:49.649Z,988.588
2023-05-20T14:14:50.162Z,988.514
2023-05-20T14:16:49.840Z,988.561
2023-05-20T14:18:49.352Z,988.425
2023-05-20T14:20:49.857Z,988.348
2023-05-20T14:22:49.454Z,988.365
2023-05-20T14:24:50.014Z,988.240
2023-05-20T14:26:49.584Z,988.204
2023-05-20T14:28:50.196Z,988.246
2023-05-20T14:30:49.770Z,988.212
2023-05-20T14:32:49.360Z,988.212
2023-05-20T14:34:50.111Z,988.090
2023-05-20T14:36:49.719Z,988.090
2023-05-20T14:38:49.756Z,988.104
2023-05-20T14:40:49.397Z,988.129
2023-05-20T14:42:49.953Z,988.080
2023-05-20T14:44:49.868Z,988.148
2023-05-20T14:46:49.540Z,988.064
2023-05-20T14:48:50.135Z,987.999
2023-05-20T14:50:49.976Z,988.039
2023-05-20T14:52:49.660Z,988.039
2023-05-20T14:54:50.206Z,987.977
2023-05-20T14:56:50.034Z,987.977
2023-05-20T14:58:49.674Z,988.001
2023-05-20T15:00:49.441Z,987.913
2023-05-20T15:02:50.033Z,987.873
2023-05-20T15:04:49.682Z,987.867
2023-05-20T15:06:50.249Z,987.841
2023-05-20T15:08:49.802Z,987.847
2023-05-20T15:10:49.360Z,987.847
2023-05-20T15:12:49.948Z,987.827
2023-05-20T15:14:49.527Z,987.748
2023-05-20T15:16:50.104Z,987.786
2023-05-20T15:18:49.758Z,987.883
2023-05-20T15:20:50.306Z,987.852
2023-05-20T15:22:49.871Z,987.852
2023-05-20T15:24:49.449Z,987.908
2023-05-20T15:26:50.054Z,987.807
2023-05-20T15:28:49.689Z,987.832
2023-05-20T15:30:50.226Z,987.832
2023-05-20T15:32:49.949Z,987.771
2023-05-20T15:34:49.705Z,987.737
2023-05-20T15:36:50.274Z,987.805
2023-05-20T15:38:49.866Z,987.809
2023-05-20T15:40:49.438Z,987.801
2023-05-20T15:42:49.994Z,987.818
2023-05-20T15:44:49.630Z,987.771
2023-05-20T15:46:50.225Z,987.692
2023-05-20T15:48:49.904Z,987.713
2023-05-20T15:50:49.455Z,987.773
2023-05-20T15:52:50.097Z,987.695
2023-05-20T15:54:49.722Z,987.675
2023-05-20T15:56:50.238Z,987.700
2023-05-20T15:58:49.834Z,987.813
2023-05-20T16:00:49.353Z,987.817
2023-05-20T16:02:49.987Z,987.837
2023-05-20T16:04:49.726Z,987.789
2023-05-20T16:06:50.231Z,987.736
2023-05-20T16:08:49.800Z,987.701
2023-05-20T16:10:50.333Z,987.694
2023-05-20T16:12:49.948Z,987.671
2023-05-20T16:14:49.591Z,987.709
2023-05-20T16:16:50.346Z,987.778
2023-05-20T16:18:50.025Z,987.718
2023-05-20T16:20:49.610Z,987.638
2023-05-20T16:22:50.169Z,987.606
2023-05-20T16:24:49.760Z,987.581
2023-05-20T16:26:49.353Z,987.616
2023-05-20T16:28:49.903Z,987.581
2023-05-20T16:30:49.541Z,987.649
2023-05-20T16:32:50.194Z,987.592
2023-05-20T16:34:49.919Z,987.663
2023-05-20T16:36:49.518Z,987.615
2023-05-20T16:38:50.126Z,987.665
2023-05-20T16:40:49.696Z,987.664
2023-05-20T16:42:50.242Z,987.649
2023-05-20T16:44:49.792Z,987.702
2023-05-20T16:46:50.080Z,987.701
2023-05-20T16:48:49.806Z,987.591
2023-05-20T16:50:49.384Z,987.591
2023-05-20T16:52:49.960Z,987.599
2023-05-20T16:54:49.570Z,987.637
2023-05-20T16:56:50.188Z,987.658
2023-05-20T16:58:51.996Z,987.624
2023-05-20T17:00:49.457Z,987.703
2023-05-20T17:02:50.180Z,987.703
2023-05-20T17:04:49.849Z,987.728
2023-05-20T17:06:49.472Z,987.713
2023-05-20T17:08:50.020Z,987.643
2023-05-20T17:10:51.239Z,987.607
2023-05-20T17:12:50.047Z,987.694
2023-05-20T17:14:49.565Z,987.709
2023-05-20T17:16:50.169Z,987.615
2023-05-20T17:18:49.854Z,987.652
2023-05-20T17:20:49.421Z,987.591
2023-05-20T17:22:49.990Z,987.623
2023-05-20T17:24:49.572Z,987.627
2023-05-20T17:26:50.241Z,987.700
2023-05-20T17:28:49.823Z,987.705
2023-05-20T17:30:49.488Z,987.657
2023-05-20T17:32:52.309Z,987.694
2023-05-20T17:34:49.553Z,987.664
2023-05-20T17:36:50.174Z,987.639
2023-05-20T17:38:49.705Z,987.569
2023-05-20T17:40:50.268Z,987.680
2023-05-20T17:42:49.822Z,987.656
2023-05-20T17:44:49.426Z,987.604
2023-05-20T17:46:49.987Z,987.620
2023-05-20T17:48:49.584Z,987.635
2023-05-20T17:50:50.172Z,987.640
2023-05-20T17:52:49.735Z,987.638
2023-05-20T17:54:50.288Z,987.633
2023-05-20T17:56:49.960Z,987.619
2023-05-20T17:58:49.519Z,987.605
2023-05-20T18:00:50.079Z,987.607
2023-05-20T18:02:49.717Z,987.625
2023-05-20T18:04:49.462Z,987.681
2023-05-20T18:06:50.086Z,987.580
2023-05-20T18:08:50.152Z,987.580
2023-05-20T18:10:49.737Z,987.624
2023-05-20T18:12:50.329Z,987.644
2023-05-20T18:14:49.843Z,987.526
2023-05-20T18:16:49.408Z,987.610
2023-05-20T18:18:50.059Z,987.646
2023-05-20T18:20:49.594Z,987.611
2023-05-20T18:22:50.156Z,987.598
2023-05-20T18:24:49.681Z,987.690
2023-05-20T18:26:50.228Z,987.681
2023-05-20T18:28:49.867Z,987.624
2023-05-20T18:30:49.486Z,987.678
2023-05-20T18:32:50.126Z,987.638
2023-05-20T18:34:49.789Z,987.636
2023-05-20T18:36:49.453Z,987.644
2023-05-20T18:38:50.025Z,987.610
2023-05-20T18:40:49.553Z,987.564
2023-05-20T18:42:50.121Z,987.643
2023-05-20T18:44:49.731Z,987.656
2023-05-20T18:46:49.319Z,987.598
2023-05-20T18:48:49.898Z,987.662
2023-05-20T18:50:49.464Z,987.708
2023-05-20T18:52:49.934Z,987.623
2023-05-20T18:54:49.548Z,987.623
2023-05-20T18:56:50.184Z,987.623
2023-05-20T18:58:49.849Z,987.562
2023-05-20T19:00:49.486Z,987.672
2023-05-20T19:02:50.073Z,987.635
2023-05-20T19:04:49.663Z,987.640
2023-05-20T19:06:50.241Z,987.640
2023-05-20T19:08:49.933Z,987.613
2023-05-20T19:10:49.480Z,987.613
2023-05-20T19:12:50.073Z,987.757
2023-05-20T19:14:49.604Z,987.738
2023-05-20T19:16:50.327Z,987.818
2023-05-20T19:18:49.908Z,987.759
2023-05-20T19:20:49.530Z,987.796
2023-05-20T19:22:50.117Z,987.803
2023-05-20T19:24:49.747Z,987.766
2023-05-20T19:26:50.318Z,987.805
2023-05-20T19:28:49.877Z,987.739
2023-05-20T19:30:49.434Z,987.780
2023-05-20T19:32:50.134Z,987.750
2023-05-20T19:34:49.880Z,987.793
2023-05-20T19:36:49.477Z,987.793
2023-05-20T19:38:50.110Z,987.757
2023-05-20T19:40:49.706Z,987.930
2023-05-20T19:42:51.858Z,987.830
2023-05-20T19:44:50.047Z,987.830
2023-05-20T19:46:49.600Z,987.768
2023-05-20T19:48:50.127Z,987.923
2023-05-20T19:50:49.654Z,987.954
2023-05-20T19:52:50.252Z,987.912
2023-05-20T19:54:49.862Z,987.955
2023-05-20T19:56:49.494Z,987.961
2023-05-20T19:58:50.086Z,987.838
2023-05-20T20:00:49.763Z,987.838
2023-05-20T20:02:49.441Z,987.960
2023-05-20T20:04:50.123Z,987.960
2023-05-20T20:06:49.610Z,987.950
2023-05-20T20:08:50.254Z,987.894
2023-05-20T20:10:49.903Z,987.821
2023-05-20T20:12:49.476Z,987.842
2023-05-20T20:14:50.023Z,987.885
2023-05-20T20:16:49.681Z,987.900
2023-05-20T20:18:50.312Z,987.825
2023-05-20T20:20:49.890Z,987.887
2023-05-20T20:22:49.477Z,987.889
2023-05-20T20:24:49.993Z,987.789
2023-05-20T20:26:49.554Z,987.787
2023-05-20T20:28:50.105Z,987.905
2023-05-20T20:30:49.683Z,987.863
2023-05-20T20:32:50.276Z,987.837
2023-05-20T20:34:49.934Z,987.874
2023-05-20T20:36:49.553Z,987.861
2023-05-20T20:38:50.148Z,987.953
2023-05-20T20:40:49.734Z,987.835
2023-05-20T20:42:50.259Z,987.844
2023-05-20T20:44:49.863Z,987.883
2023-05-20T20:46:49.417Z,987.808
2023-05-20T20:48:49.960Z,987.831
2023-05-20T20:50:49.628Z,987.740
2023-05-20T20:52:50.160Z,987.826
2023-05-20T20:54:49.705Z,987.788
2023-05-20T20:56:50.371Z,987.855
2023-05-20T20:58:49.929Z,987.745
2023-05-20T21:00:49.602Z,987.797
2023-05-20T21:02:50.195Z,987.808
2023-05-20T21:04:49.879Z,987.744
2023-05-20T21:06:49.490Z,987.714
2023-05-20T21:08:50.054Z,987.737
2023-05-20T21:10:49.630Z,987.678
2023-05-20T21:12:50.190Z,987.553
2023-05-20T21:14:49.741Z,987.625
2023-05-20T21:16:49.489Z,987.590
2023-05-20T21:18:50.065Z,987.668
2023-05-20T21:20:49.668Z,987.688
2023-05-20T21:22:50.290Z,987.641
2023-05-20T21:24:49.889Z,987.696
2023-05-20T21:26:49.567Z,987.623
2023-05-20T21:28:50.118Z,987.618
2023-05-20T21:30:49.829Z,987.628
2023-05-20T21:32:49.460Z,987.637
2023-05-20T21:34:50.110Z,987.637
2023-05-20T21:36:49.784Z,987.638
2023-05-20T21:38:50.327Z,987.639
2023-05-20T21:40:49.950Z,987.579
2023-05-20T21:42:49.513Z,987.579
2023-05-20T21:44:50.070Z,987.565
2023-05-20T21:46:49.630Z,987.611
2023-05-20T21:48:49.351Z,987.646
2023-05-20T21:50:49.900Z,987.650
2023-05-20T21:52:49.475Z,987.629
2023-05-20T21:54:49.990Z,987.632
2023-05-20T21:56:49.644Z,987.601
2023-05-20T21:58:50.194Z,987.567
2023-05-20T22:00:49.780Z,987.587
2023-05-20T22:02:49.462Z,987.581
2023-05-20T22:04:50.120Z,987.545
2023-05-20T22:06:49.664Z,987.608
2023-05-20T22:08:50.220Z,987.508
2023-05-20T22:10:49.740Z,987.528
2023-05-20T22:12:50.281Z,987.443
2023-05-20T22:14:49.891Z,987.472
2023-05-20T22:16:49.492Z,987.488
2023-05-20T22:18:50.113Z,987.500
2023-05-20T22:20:49.719Z,987.511
2023-05-20T22:22:50.238Z,987.469
2023-05-20T22:24:49.816Z,987.362
2023-05-20T22:26:49.416Z,987.386
2023-05-20T22:28:49.985Z,987.396
2023-05-20T22:30:49.566Z,987.377
2023-05-20T22:32:50.109Z,987.389
2023-05-20T22:34:49.786Z,987.341
2023-05-20T22:36:49.358Z,987.377
2023-05-20T22:38:49.888Z,987.367
2023-05-20T22:40:49.378Z,987.336
2023-05-20T22:42:50.025Z,987.307
2023-05-20T22:44:49.597Z,987.281
2023-05-20T22:46:50.145Z,987.223
2023-05-20T22:48:49.714Z,987.252
2023-05-20T22:50:50.305Z,987.246
2023-05-20T22:52:49.892Z,987.246
2023-05-20T22:54:49.430Z,987.216
2023-05-20T22:56:50.007Z,987.216
2023-05-20T22:58:49.527Z,987.034
2023-05-20T23:00:50.092Z,987.116
2023-05-20T23:02:50.105Z,987.096
2023-05-20T23:04:50.054Z,987.069
2023-05-20T23:06:49.692Z,987.026
2023-05-20T23:08:50.233Z,986.966
2023-05-20T23:10:49.800Z,986.909
2023-05-20T23:12:49.381Z,986.947
2023-05-20T23:14:49.942Z,986.980
2023-05-20T23:16:49.558Z,987.060
2023-05-20T23:18:50.176Z,987.017
2023-05-20T23:20:49.692Z,986.968
2023-05-20T23:22:50.202Z,987.060
2023-05-20T23:24:49.752Z,986.939
2023-05-20T23:26:50.357Z,986.962
2023-05-20T23:28:49.905Z,986.869
2023-05-20T23:30:49.472Z,986.876
2023-05-20T23:32:50.107Z,986.978
2023-05-20T23:34:49.871Z,986.918
2023-05-20T23:36:49.491Z,986.948
2023-05-20T23:38:50.044Z,986.919
2023-05-20T23:40:49.720Z,986.951
2023-05-20T23:42:50.225Z,986.929
2023-05-20T23:44:49.873Z,987.005
2023-05-20T23:46:49.469Z,986.956
2023-05-20T23:48:50.016Z,987.013
2023-05-20T23:50:49.612Z,986.895
2023-05-20T23:52:50.192Z,986.897
2023-05-20T23:54:49.765Z,986.969
2023-05-20T23:56:49.348Z,986.965
2023-05-20T23:58:49.915Z,986.882
